createdAt,value
2022-08-14T00:02:04.846Z,82.01
2022-08-14T00:05:14.500Z,82.02
2022-08-14T00:08:17.891Z,82.01
2022-08-14T00:11:43.663Z,82.05
2022-08-14T00:14:47.353Z,82.08
2022-08-14T00:17:58.784Z,82.16
2022-08-14T00:21:02.011Z,82.17
2022-08-14T00:24:06.257Z,82.17
2022-08-14T00:27:12.606Z,82.14
2022-08-14T00:30:17.369Z,82.09
2022-08-14T00:33:20.507Z,82.02
2022-08-14T00:36:48.639Z,82.09
2022-08-14T00:39:52.593Z,82.09
2022-08-14T00:42:56.625Z,82.10
2022-08-14T00:46:09.081Z,82.12
2022-08-14T00:49:37.975Z,82.14
2022-08-14T00:52:50.949Z,82.08
2022-08-14T00:55:56.516Z,82.08
2022-08-14T00:58:59.861Z,82.13
2022-08-14T01:02:04.292Z,82.20
2022-08-14T01:05:07.772Z,82.27
2022-08-14T01:08:20.670Z,82.20
2022-08-14T01:11:36.120Z,82.20
2022-08-14T01:14:40.859Z,82.26
2022-08-14T01:18:02.397Z,82.27
2022-08-14T01:21:18.437Z,82.25
2022-08-14T01:24:24.823Z,82.21
2022-08-14T01:27:36.621Z,82.23
2022-08-14T01:30:59.449Z,82.22
2022-08-14T01:35:19.618Z,82.19
2022-08-14T01:37:28.873Z,82.20
2022-08-14T01:40:40.883Z,82.20
2022-08-14T01:43:56.371Z,82.21
2022-08-14T01:47:02.055Z,82.22
2022-08-14T01:50:10.180Z,82.15
2022-08-14T01:53:13.287Z,82.05
2022-08-14T01:56:18.856Z,82.02
2022-08-14T01:59:37.825Z,81.99
2022-08-14T02:02:42.611Z,81.98
2022-08-14T02:05:49.692Z,81.90
2022-08-14T02:08:55.259Z,81.88
2022-08-14T02:11:59.390Z,81.85
2022-08-14T02:15:04.917Z,81.81
2022-08-14T02:18:07.963Z,81.83
2022-08-14T02:21:12.577Z,81.82
2022-08-14T02:24:39.827Z,81.77
2022-08-14T02:28:24.890Z,81.83
2022-08-14T02:31:09.038Z,81.78
2022-08-14T02:34:27.451Z,81.85
2022-08-14T02:37:46.405Z,81.95
2022-08-14T02:40:51.850Z,81.96
2022-08-14T02:43:54.916Z,81.92
2022-08-14T02:47:04.228Z,81.93
2022-08-14T02:50:17.795Z,81.94
2022-08-14T02:53:21.036Z,81.91
2022-08-14T02:56:30.239Z,81.92
2022-08-14T02:59:50.239Z,82.00
2022-08-14T03:02:58.488Z,82.03
2022-08-14T03:06:02.479Z,82.05
2022-08-14T03:09:05.655Z,82.06
2022-08-14T03:12:08.836Z,82.10
2022-08-14T03:15:16.470Z,82.07
2022-08-14T03:18:31.387Z,82.11
2022-08-14T03:21:37.254Z,82.13
2022-08-14T03:24:40.408Z,82.15
2022-08-14T03:27:48.556Z,82.22
2022-08-14T03:31:01.870Z,82.24
2022-08-14T03:34:04.948Z,82.21
2022-08-14T03:37:38.762Z,82.23
2022-08-14T03:40:38.441Z,82.26
2022-08-14T03:43:42.272Z,82.26
2022-08-14T03:46:54.802Z,82.28
2022-08-14T03:49:59.774Z,82.35
2022-08-14T03:53:03.499Z,82.39
2022-08-14T03:56:08.051Z,82.36
2022-08-14T03:59:18.064Z,82.40
2022-08-14T04:02:46.853Z,82.44
2022-08-14T04:05:48.815Z,82.45
2022-08-14T04:08:53.389Z,82.50
2022-08-14T04:12:02.170Z,82.49
2022-08-14T04:15:10.917Z,82.51
2022-08-14T04:18:14.294Z,82.50
2022-08-14T04:21:24.556Z,82.57
2022-08-14T04:24:27.490Z,82.61
2022-08-14T04:27:30.798Z,82.55
2022-08-14T04:30:52.045Z,82.60
2022-08-14T04:33:55.564Z,82.64
2022-08-14T04:37:22.039Z,82.72
2022-08-14T04:40:46.121Z,82.83
2022-08-14T04:43:49.075Z,82.86
2022-08-14T04:47:17.173Z,82.85
2022-08-14T04:50:24.450Z,82.89
2022-08-14T04:53:43.174Z,82.88
2022-08-14T04:56:46.720Z,82.94
2022-08-14T04:59:50.787Z,82.96
2022-08-14T05:02:53.892Z,83.03
2022-08-14T05:06:00.026Z,83.11
2022-08-14T05:09:03.484Z,83.12
2022-08-14T05:13:14.049Z,83.18
2022-08-14T05:15:32.718Z,83.30
2022-08-14T05:19:17.800Z,83.27
2022-08-14T05:22:16.811Z,83.26
2022-08-14T05:25:22.021Z,83.26
2022-08-14T05:28:27.255Z,83.31
2022-08-14T05:31:39.724Z,83.35
2022-08-14T05:34:45.733Z,83.40
2022-08-14T05:37:50.144Z,83.37
2022-08-14T05:40:53.390Z,83.38
2022-08-14T05:43:57.048Z,83.39
2022-08-14T05:47:00.998Z,83.38
2022-08-14T05:50:04.289Z,83.45
2022-08-14T05:53:08.469Z,83.46
2022-08-14T05:56:11.713Z,83.44
2022-08-14T05:59:16.757Z,83.47
2022-08-14T06:02:21.832Z,83.50
2022-08-14T06:05:28.678Z,83.50
2022-08-14T06:08:36.327Z,83.46
2022-08-14T06:11:44.600Z,83.36
2022-08-14T06:14:52.895Z,83.40
2022-08-14T06:17:58.919Z,83.36
2022-08-14T06:21:04.056Z,83.50
2022-08-14T06:24:10.524Z,83.53
2022-08-14T06:27:21.824Z,83.52
2022-08-14T06:30:30.052Z,83.54
2022-08-14T06:35:01.542Z,83.59
2022-08-14T06:37:07.792Z,83.57
2022-08-14T06:40:26.257Z,83.55
2022-08-14T06:43:32.627Z,83.55
2022-08-14T06:46:37.299Z,83.73
2022-08-14T06:49:45.045Z,83.81
2022-08-14T06:52:52.088Z,83.72
2022-08-14T06:56:01.114Z,83.84
2022-08-14T06:59:05.955Z,83.94
2022-08-14T07:02:28.914Z,83.98
2022-08-14T07:05:55.368Z,84.01
2022-08-14T07:09:00.670Z,83.89
2022-08-14T07:12:03.970Z,83.83
2022-08-14T07:15:07.844Z,83.73
2022-08-14T07:18:12.177Z,83.78
2022-08-14T07:21:16.137Z,83.94
2022-08-14T07:24:26.521Z,83.95
2022-08-14T07:27:36.163Z,84.06
2022-08-14T07:30:50.653Z,84.06
2022-08-14T07:33:54.215Z,84.19
2022-08-14T07:37:00.710Z,84.22
2022-08-14T07:40:05.891Z,84.19
2022-08-14T07:43:14.494Z,84.18
2022-08-14T07:46:21.174Z,84.25
2022-08-14T07:49:34.437Z,84.31
2022-08-14T07:52:38.339Z,84.21
2022-08-14T07:55:42.980Z,84.04
2022-08-14T07:58:51.537Z,83.92
2022-08-14T08:01:57.390Z,84.03
2022-08-14T08:05:02.667Z,83.94
2022-08-14T08:08:08.425Z,83.96
2022-08-14T08:11:37.402Z,84.14
2022-08-14T08:14:55.780Z,84.22
2022-08-14T08:18:06.500Z,84.36
2022-08-14T08:21:11.274Z,84.24
2022-08-14T08:24:18.484Z,84.35
2022-08-14T08:27:23.779Z,84.54
2022-08-14T08:30:30.288Z,84.58
2022-08-14T08:33:39.162Z,84.70
2022-08-14T08:36:46.568Z,84.93
2022-08-14T08:40:01.486Z,84.97
2022-08-14T08:43:07.426Z,85.03
2022-08-14T08:46:18.523Z,85.09
2022-08-14T08:49:52.590Z,84.98
2022-08-14T08:53:06.875Z,85.02
2022-08-14T08:56:11.693Z,84.91
2022-08-14T08:59:34.308Z,84.93
2022-08-14T09:02:37.488Z,84.73
2022-08-14T09:05:56.245Z,84.69
2022-08-14T09:08:59.181Z,84.54
2022-08-14T09:12:03.351Z,84.56
2022-08-14T09:15:11.895Z,84.46
2022-08-14T09:18:18.520Z,84.50
2022-08-14T09:21:24.405Z,84.52
2022-08-14T09:24:35.317Z,84.50
2022-08-14T09:27:40.288Z,84.38
2022-08-14T09:30:47.863Z,84.38
2022-08-14T09:34:27.270Z,84.29
2022-08-14T09:37:43.678Z,84.39
2022-08-14T09:41:04.796Z,84.61
2022-08-14T09:44:28.198Z,84.55
2022-08-14T09:47:43.580Z,84.22
2022-08-14T09:50:52.949Z,84.52
2022-08-14T09:54:22.512Z,84.28
2022-08-14T09:57:28.929Z,83.68
2022-08-14T10:00:52.794Z,83.34
2022-08-14T10:03:57.404Z,83.35
2022-08-14T10:07:04.331Z,83.26
2022-08-14T10:10:23.402Z,83.07
2022-08-14T10:13:26.974Z,82.94
2022-08-14T10:16:53.872Z,82.74
2022-08-14T10:19:57.999Z,82.74
2022-08-14T10:23:20.419Z,82.69
2022-08-14T10:26:28.265Z,82.90
2022-08-14T10:29:41.066Z,82.88
2022-08-14T10:32:51.154Z,82.75
2022-08-14T10:35:56.334Z,82.78
2022-08-14T10:39:16.299Z,82.73
2022-08-14T10:42:21.204Z,82.85
2022-08-14T10:45:30.221Z,83.11
2022-08-14T10:48:43.401Z,83.51
2022-08-14T10:52:11.604Z,83.80
2022-08-14T10:55:19.484Z,83.62
2022-08-14T10:58:29.842Z,83.67
2022-08-14T11:01:41.382Z,83.98
2022-08-14T11:04:46.029Z,83.92
2022-08-14T11:07:55.416Z,84.25
2022-08-14T11:11:02.204Z,84.35
2022-08-14T11:14:09.426Z,84.20
2022-08-14T11:17:13.408Z,84.44
2022-08-14T11:20:19.390Z,84.75
2022-08-14T11:23:28.394Z,85.01
2022-08-14T11:26:45.011Z,84.72
2022-08-14T11:29:52.843Z,84.59
2022-08-14T11:33:05.390Z,84.79
2022-08-14T11:36:18.340Z,84.64
2022-08-14T11:39:34.609Z,84.31
2022-08-14T11:42:58.562Z,84.02
2022-08-14T11:46:03.766Z,83.85
2022-08-14T11:49:09.578Z,83.77
2022-08-14T11:52:15.910Z,83.76
2022-08-14T11:55:25.536Z,83.77
2022-08-14T11:58:34.793Z,84.07
2022-08-14T12:01:41.055Z,84.42
2022-08-14T12:04:51.453Z,85.01
2022-08-14T12:07:55.343Z,85.34
2022-08-14T12:10:58.810Z,85.14
2022-08-14T12:14:08.847Z,85.60
2022-08-14T12:17:47.630Z,85.78
2022-08-14T12:20:53.741Z,85.02
2022-08-14T12:24:08.473Z,84.46
2022-08-14T12:27:13.281Z,85.05
2022-08-14T12:30:56.650Z,84.23
2022-08-14T12:34:02.799Z,83.24
2022-08-14T12:37:13.172Z,82.39
2022-08-14T12:40:20.939Z,82.28
2022-08-14T12:43:24.052Z,80.26
2022-08-14T12:46:43.667Z,80.03
2022-08-14T12:49:54.329Z,80.75
2022-08-14T12:53:14.432Z,80.89
2022-08-14T12:56:33.000Z,80.01
2022-08-14T12:59:42.733Z,79.94
2022-08-14T13:02:55.383Z,79.80
2022-08-14T13:05:58.576Z,80.26
2022-08-14T13:09:11.113Z,79.99
2022-08-14T13:12:32.632Z,79.50
2022-08-14T13:15:40.430Z,79.65
2022-08-14T13:18:46.915Z,79.03
2022-08-14T13:22:05.011Z,79.47
2022-08-14T13:25:10.573Z,79.51
2022-08-14T13:28:33.808Z,78.18
2022-08-14T13:31:39.487Z,77.82
2022-08-14T13:34:46.041Z,77.14
2022-08-14T13:37:52.211Z,77.45
2022-08-14T13:40:56.100Z,78.04
2022-08-14T13:44:00.601Z,77.81
2022-08-14T13:47:06.998Z,76.46
2022-08-14T13:50:15.683Z,75.47
2022-08-14T13:53:24.783Z,76.69
2022-08-14T13:56:36.357Z,77.14
2022-08-14T13:59:46.532Z,77.13
2022-08-14T14:02:56.442Z,76.02
2022-08-14T14:06:02.428Z,75.17
2022-08-14T14:09:11.342Z,74.97
2022-08-14T14:12:37.396Z,74.74
2022-08-14T14:15:58.612Z,74.23
2022-08-14T14:19:09.173Z,75.10
2022-08-14T14:23:00.771Z,75.24
2022-08-14T14:25:48.516Z,76.05
2022-08-14T14:28:56.530Z,76.85
2022-08-14T14:32:01.072Z,76.93
2022-08-14T14:35:05.237Z,76.99
2022-08-14T14:38:10.036Z,76.77
2022-08-14T14:41:17.502Z,75.45
2022-08-14T14:44:23.640Z,75.18
2022-08-14T14:47:27.243Z,74.32
2022-08-14T14:50:34.443Z,73.60
2022-08-14T14:53:42.515Z,73.22
2022-08-14T14:56:52.425Z,73.38
2022-08-14T14:59:57.553Z,72.87
2022-08-14T15:03:01.650Z,72.59
2022-08-14T15:06:05.462Z,72.68
2022-08-14T15:09:09.074Z,72.28
2022-08-14T15:12:34.814Z,71.95
2022-08-14T15:15:37.309Z,72.88
2022-08-14T15:18:46.914Z,72.72
2022-08-14T15:21:52.211Z,73.24
2022-08-14T15:24:56.597Z,72.30
2022-08-14T15:28:00.974Z,72.82
2022-08-14T15:31:05.723Z,73.42
2022-08-14T15:34:45.654Z,74.42
2022-08-14T15:37:36.526Z,74.61
2022-08-14T15:40:51.524Z,74.05
2022-08-14T15:44:00.079Z,74.08
2022-08-14T15:47:07.287Z,74.46
2022-08-14T15:50:10.387Z,75.08
2022-08-14T15:53:13.442Z,75.36
2022-08-14T15:56:32.985Z,75.70
2022-08-14T15:59:58.731Z,75.55
2022-08-14T16:03:03.076Z,75.27
2022-08-14T16:06:10.824Z,75.37
2022-08-14T16:09:18.456Z,75.73
2022-08-14T16:12:41.857Z,75.96
2022-08-14T16:15:53.591Z,75.88
2022-08-14T16:18:58.945Z,76.06
2022-08-14T16:22:58.552Z,76.26
2022-08-14T16:25:34.284Z,76.36
2022-08-14T16:28:38.010Z,76.57
2022-08-14T16:31:43.785Z,76.74
2022-08-14T16:34:49.268Z,77.03
2022-08-14T16:37:55.706Z,77.20
2022-08-14T16:41:27.279Z,77.26
2022-08-14T16:44:40.992Z,77.80
2022-08-14T16:47:47.828Z,78.02
2022-08-14T16:50:53.507Z,77.90
2022-08-14T16:54:01.656Z,78.24
2022-08-14T16:57:32.468Z,78.32
2022-08-14T17:00:43.979Z,78.31
2022-08-14T17:04:14.882Z,78.41
2022-08-14T17:07:27.452Z,78.31
2022-08-14T17:10:36.112Z,78.56
2022-08-14T17:13:58.595Z,78.72
2022-08-14T17:17:04.264Z,78.75
2022-08-14T17:20:39.206Z,78.87
2022-08-14T17:23:35.225Z,79.03
2022-08-14T17:26:45.675Z,79.25
2022-08-14T17:29:56.720Z,79.38
2022-08-14T17:33:12.773Z,79.41
2022-08-14T17:36:25.079Z,79.63
2022-08-14T17:39:28.090Z,79.77
2022-08-14T17:42:51.839Z,79.83
2022-08-14T17:45:56.638Z,79.85
2022-08-14T17:49:16.350Z,79.88
2022-08-14T17:52:34.682Z,79.99
2022-08-14T17:56:01.867Z,80.08
2022-08-14T17:59:07.054Z,80.11
2022-08-14T18:02:16.490Z,80.13
2022-08-14T18:05:23.263Z,80.19
2022-08-14T18:08:33.586Z,80.26
2022-08-14T18:11:46.669Z,80.35
2022-08-14T18:14:52.790Z,80.48
2022-08-14T18:17:57.611Z,80.49
2022-08-14T18:21:23.906Z,80.46
2022-08-14T18:24:29.907Z,80.30
2022-08-14T18:27:43.494Z,80.15
2022-08-14T18:30:58.194Z,80.05
2022-08-14T18:34:12.304Z,79.98
2022-08-14T18:37:34.146Z,80.01
2022-08-14T18:40:40.243Z,79.95
2022-08-14T18:43:58.992Z,79.90
2022-08-14T18:47:15.135Z,79.87
2022-08-14T18:50:27.192Z,79.93
2022-08-14T18:53:57.005Z,79.99
2022-08-14T18:57:05.265Z,80.02
2022-08-14T19:00:33.819Z,80.07
2022-08-14T19:03:38.121Z,80.23
2022-08-14T19:06:45.008Z,80.42
2022-08-14T19:09:56.362Z,80.61
2022-08-14T19:13:04.861Z,80.72
2022-08-14T19:16:22.914Z,80.75
2022-08-14T19:19:41.209Z,80.87
2022-08-14T19:22:49.950Z,81.01
2022-08-14T19:26:01.424Z,81.10
2022-08-14T19:29:25.742Z,81.21
2022-08-14T19:32:31.921Z,81.29
2022-08-14T19:35:48.490Z,81.38
2022-08-14T19:39:02.032Z,81.40
2022-08-14T19:42:08.649Z,81.44
2022-08-14T19:45:14.815Z,81.45
2022-08-14T19:48:17.752Z,81.46
2022-08-14T19:51:21.863Z,81.48
2022-08-14T19:54:30.972Z,81.56
2022-08-14T19:57:33.908Z,81.59
2022-08-14T20:00:52.179Z,81.49
2022-08-14T20:04:00.431Z,81.49
2022-08-14T20:07:08.938Z,81.51
2022-08-14T20:11:06.403Z,81.49
2022-08-14T20:14:28.141Z,81.33
2022-08-14T20:17:33.303Z,81.23
2022-08-14T20:20:43.574Z,81.27
2022-08-14T20:23:48.206Z,81.27
2022-08-14T20:27:33.343Z,81.25
2022-08-14T20:30:38.058Z,81.29
2022-08-14T20:34:01.716Z,81.27
2022-08-14T20:37:22.089Z,81.27
2022-08-14T20:40:28.271Z,81.23
2022-08-14T20:43:53.249Z,81.18
2022-08-14T20:47:04.143Z,81.19
2022-08-14T20:50:28.178Z,81.18
2022-08-14T20:53:36.530Z,81.15
2022-08-14T20:56:44.912Z,81.10
2022-08-14T20:59:53.400Z,81.12
2022-08-14T21:03:29.201Z,81.09
2022-08-14T21:07:23.584Z,80.92
2022-08-14T21:10:33.758Z,80.63
2022-08-14T21:14:24.673Z,80.43
2022-08-14T21:17:06.139Z,80.15
2022-08-14T21:20:25.376Z,80.11
2022-08-14T21:23:35.904Z,80.13
2022-08-14T21:27:12.741Z,80.19
2022-08-14T21:30:51.045Z,80.28
2022-08-14T21:33:49.602Z,80.36
2022-08-14T21:37:09.850Z,80.43
2022-08-14T21:40:39.933Z,80.50
2022-08-14T21:43:45.901Z,80.37
2022-08-14T21:46:59.241Z,80.27
2022-08-14T21:50:56.435Z,80.30
2022-08-14T21:53:32.906Z,80.34
2022-08-14T21:56:41.571Z,80.33
2022-08-14T22:00:36.061Z,80.40
2022-08-14T22:03:38.591Z,80.48
2022-08-14T22:06:50.529Z,80.58
2022-08-14T22:09:55.297Z,80.68
2022-08-14T22:13:01.326Z,80.71
2022-08-14T22:16:05.014Z,80.85
2022-08-14T22:19:11.249Z,80.89
2022-08-14T22:22:17.009Z,80.95
2022-08-14T22:25:20.076Z,80.99
2022-08-14T22:28:32.644Z,81.04
2022-08-14T22:31:41.389Z,81.08
2022-08-14T22:34:48.515Z,81.02
2022-08-14T22:38:35.986Z,81.08
2022-08-14T22:41:26.691Z,81.17
2022-08-14T22:44:34.595Z,81.22
2022-08-14T22:47:40.789Z,81.26
2022-08-14T22:50:53.226Z,81.37
2022-08-14T22:53:59.180Z,81.45
2022-08-14T22:57:04.277Z,81.44
2022-08-14T23:00:25.061Z,81.47
2022-08-14T23:03:34.227Z,81.54
2022-08-14T23:07:02.902Z,81.53
2022-08-14T23:10:32.398Z,81.64
2022-08-14T23:13:24.719Z,81.67
2022-08-14T23:16:27.827Z,81.61
2022-08-14T23:19:33.557Z,81.61
2022-08-14T23:22:41.628Z,81.66
2022-08-14T23:26:00.720Z,81.70
2022-08-14T23:29:12.928Z,81.60
2022-08-14T23:32:19.113Z,81.54
2022-08-14T23:35:27.052Z,81.59
2022-08-14T23:38:31.370Z,81.57
2022-08-14T23:41:46.427Z,81.60
2022-08-14T23:44:56.818Z,81.65
2022-08-14T23:48:01.433Z,81.70
2022-08-14T23:51:04.513Z,81.71
2022-08-14T23:54:47.469Z,81.72
2022-08-14T23:57:30.915Z,81.72
